createdAt,value
2023-02-23T00:01:57.618Z,26.30
2023-02-23T00:04:25.302Z,20.58
2023-02-23T00:06:53.498Z,26.05
2023-02-23T00:09:28.077Z,30.00
2023-02-23T00:12:01.213Z,30.98
2023-02-23T00:14:31.174Z,31.30
2023-02-23T00:17:01.343Z,42.25
2023-02-23T00:19:28.293Z,41.55
2023-02-23T00:21:58.880Z,38.42
2023-02-23T00:24:27.105Z,33.72
2023-02-23T00:26:57.362Z,47.40
2023-02-23T00:29:25.217Z,41.05
2023-02-23T00:31:56.190Z,39.53
2023-02-23T00:34:24.048Z,36.08
2023-02-23T00:36:56.630Z,33.35
2023-02-23T00:39:29.435Z,36.10
2023-02-23T00:42:02.513Z,32.70
2023-02-23T00:44:29.786Z,33.75
2023-02-23T00:46:56.760Z,35.30
2023-02-23T00:49:23.919Z,42.50
2023-02-23T00:51:52.326Z,41.60
2023-02-23T00:54:21.459Z,40.40
2023-02-23T00:56:49.098Z,36.28
2023-02-23T00:59:19.166Z,37.33
2023-02-23T01:01:46.466Z,30.05
2023-02-23T01:04:14.064Z,33.47
2023-02-23T01:06:42.684Z,31.10
2023-02-23T01:09:13.983Z,30.35
2023-02-23T01:11:41.784Z,28.48
2023-02-23T01:14:10.742Z,24.23
2023-02-23T01:16:40.470Z,26.30
2023-02-23T01:19:08.273Z,30.83
2023-02-23T01:21:38.729Z,25.55
2023-02-23T01:24:08.853Z,28.27
2023-02-23T01:26:38.369Z,26.80
2023-02-23T01:29:08.922Z,26.55
2023-02-23T01:31:38.660Z,32.60
2023-02-23T01:34:06.705Z,31.83
2023-02-23T01:36:36.703Z,30.20
2023-02-23T01:39:06.831Z,31.58
2023-02-23T01:41:36.327Z,29.55
2023-02-23T01:44:06.314Z,33.65
2023-02-23T01:49:06.901Z,38.70
2023-02-23T01:51:44.751Z,34.50
2023-02-23T01:54:17.428Z,33.33
2023-02-23T01:56:49.565Z,33.72
2023-02-23T01:59:17.984Z,30.23
2023-02-23T02:01:45.606Z,26.77
2023-02-23T02:04:16.949Z,23.00
2023-02-23T02:06:47.124Z,24.38
2023-02-23T02:09:17.715Z,30.33
2023-02-23T02:11:49.298Z,25.67
2023-02-23T02:14:21.060Z,25.67
2023-02-23T02:17:10.298Z,28.17
2023-02-23T02:20:06.442Z,23.27
2023-02-23T02:22:48.260Z,19.92
2023-02-23T02:25:36.855Z,21.98
2023-02-23T02:28:36.780Z,21.38
2023-02-23T02:31:30.273Z,19.77
2023-02-23T02:34:18.895Z,29.67
2023-02-23T02:37:11.764Z,37.70
2023-02-23T02:39:47.810Z,26.65
2023-02-23T02:42:40.053Z,29.48
2023-02-23T02:45:28.351Z,29.40
2023-02-23T02:48:05.923Z,22.38
2023-02-23T02:51:05.535Z,27.38
2023-02-23T02:54:07.021Z,19.85
2023-02-23T02:56:40.436Z,22.92
2023-02-23T02:59:37.769Z,24.98
2023-02-23T03:02:25.178Z,22.88
2023-02-23T03:05:11.083Z,28.27
2023-02-23T03:08:02.764Z,23.70
2023-02-23T03:11:16.775Z,22.75
2023-02-23T03:14:33.339Z,23.33
2023-02-23T03:17:41.947Z,23.67
2023-02-23T03:20:45.512Z,19.80
2023-02-23T03:24:04.112Z,23.08
2023-02-23T03:27:11.472Z,20.55
2023-02-23T03:30:01.678Z,23.92
2023-02-23T03:33:03.660Z,23.40
2023-02-23T03:35:57.960Z,26.52
2023-02-23T03:39:06.999Z,22.98
2023-02-23T03:41:55.182Z,22.92
2023-02-23T03:44:47.413Z,22.73
2023-02-23T03:47:37.309Z,19.52
2023-02-23T03:50:28.578Z,22.95
2023-02-23T03:53:18.608Z,21.13
2023-02-23T03:56:10.744Z,19.77
2023-02-23T03:59:00.162Z,17.80
2023-02-23T04:01:47.808Z,20.73
2023-02-23T04:04:34.512Z,21.23
2023-02-23T04:07:21.925Z,18.27
2023-02-23T04:10:08.301Z,16.58
2023-02-23T04:13:06.913Z,20.20
2023-02-23T04:15:40.384Z,29.30
2023-02-23T04:18:15.839Z,24.25
2023-02-23T04:20:43.418Z,23.05
2023-02-23T04:23:10.527Z,23.05
2023-02-23T04:25:37.587Z,23.23
2023-02-23T04:28:04.870Z,22.98
2023-02-23T04:30:32.058Z,25.50
2023-02-23T04:33:02.223Z,25.27
2023-02-23T04:35:31.482Z,22.70
2023-02-23T04:38:01.290Z,25.83
2023-02-23T04:40:29.270Z,26.35
2023-02-23T04:42:57.129Z,29.95
2023-02-23T04:45:30.780Z,28.73
2023-02-23T04:47:57.842Z,27.60
2023-02-23T04:50:24.909Z,27.48
2023-02-23T04:52:53.404Z,31.75
2023-02-23T04:55:23.049Z,32.40
2023-02-23T04:57:50.209Z,28.40
2023-02-23T05:00:18.255Z,26.65
2023-02-23T05:02:46.012Z,25.40
2023-02-23T05:05:13.135Z,27.02
2023-02-23T05:07:40.441Z,25.17
2023-02-23T05:10:08.025Z,31.75
2023-02-23T05:12:35.175Z,30.45
2023-02-23T05:15:02.229Z,30.40
2023-02-23T05:17:32.367Z,27.65
2023-02-23T05:19:59.390Z,24.55
2023-02-23T05:22:26.617Z,24.02
2023-02-23T05:24:55.283Z,23.50
2023-02-23T05:27:23.478Z,20.33
2023-02-23T05:29:50.673Z,21.48
2023-02-23T05:32:18.163Z,18.20
2023-02-23T05:34:45.240Z,17.90
2023-02-23T05:37:12.282Z,19.30
2023-02-23T05:39:39.296Z,20.10
2023-02-23T05:42:06.344Z,19.15
2023-02-23T05:44:33.631Z,20.63
2023-02-23T05:47:01.003Z,18.67
2023-02-23T05:49:28.727Z,22.80
2023-02-23T05:51:55.746Z,21.92
2023-02-23T05:54:22.734Z,19.58
2023-02-23T05:56:50.105Z,21.10
2023-02-23T05:59:17.540Z,22.00
2023-02-23T06:01:44.747Z,18.73
2023-02-23T06:04:11.863Z,26.60
2023-02-23T06:06:38.845Z,21.33
2023-02-23T06:09:05.882Z,24.80
2023-02-23T06:11:32.867Z,23.05
2023-02-23T06:14:00.205Z,25.65
2023-02-23T06:16:28.277Z,26.80
2023-02-23T06:18:55.455Z,26.33
2023-02-23T06:21:23.042Z,31.13
2023-02-23T06:23:53.493Z,31.63
2023-02-23T06:26:20.746Z,29.55
2023-02-23T06:28:47.808Z,31.27
2023-02-23T06:31:14.922Z,25.20
2023-02-23T06:33:41.972Z,21.77
2023-02-23T06:36:10.439Z,23.42
2023-02-23T06:38:38.185Z,20.48
2023-02-23T06:41:09.653Z,17.65
2023-02-23T06:43:36.744Z,23.58
2023-02-23T06:46:04.967Z,20.10
2023-02-23T06:48:34.446Z,21.35
2023-02-23T06:51:01.487Z,18.73
2023-02-23T06:53:31.571Z,21.17
2023-02-23T06:56:00.783Z,20.38
2023-02-23T06:58:29.198Z,21.17
2023-02-23T07:00:56.973Z,24.13
2023-02-23T07:03:26.845Z,23.10
2023-02-23T07:05:54.369Z,23.88
2023-02-23T07:08:21.526Z,23.20
2023-02-23T07:10:48.478Z,26.33
2023-02-23T07:13:16.479Z,30.13
2023-02-23T07:15:43.747Z,31.35
2023-02-23T07:18:10.680Z,34.85
2023-02-23T07:20:38.084Z,32.78
2023-02-23T07:23:05.079Z,32.83
2023-02-23T07:25:32.322Z,30.50
2023-02-23T07:28:02.348Z,25.75
2023-02-23T07:30:29.467Z,26.25
2023-02-23T07:32:56.549Z,27.00
2023-02-23T07:35:23.559Z,26.33
2023-02-23T07:37:50.569Z,26.33
2023-02-23T07:40:19.510Z,22.77
2023-02-23T07:42:46.508Z,23.23
2023-02-23T07:45:14.666Z,22.85
2023-02-23T07:47:41.625Z,23.30
2023-02-23T07:50:10.188Z,24.70
2023-02-23T07:52:38.938Z,20.35
2023-02-23T07:55:08.020Z,21.80
2023-02-23T07:57:35.417Z,19.45
2023-02-23T08:00:02.699Z,18.58
2023-02-23T08:02:39.824Z,18.75
2023-02-23T08:05:07.484Z,20.27
2023-02-23T08:07:34.640Z,17.77
2023-02-23T08:10:01.741Z,17.35
2023-02-23T08:12:33.350Z,17.13
2023-02-23T08:15:00.443Z,20.13
2023-02-23T08:17:29.471Z,19.23
2023-02-23T08:19:56.448Z,18.05
2023-02-23T08:22:23.507Z,18.33
2023-02-23T08:24:50.614Z,19.15
2023-02-23T08:27:17.771Z,19.70
2023-02-23T08:29:44.958Z,18.25
2023-02-23T08:32:12.206Z,22.15
2023-02-23T08:34:45.798Z,20.55
2023-02-23T08:37:12.804Z,23.58
2023-02-23T08:39:39.862Z,25.15
2023-02-23T08:42:06.942Z,25.25
2023-02-23T08:44:34.114Z,23.30
2023-02-23T08:47:04.950Z,23.23
2023-02-23T08:49:33.121Z,20.23
2023-02-23T08:52:00.252Z,22.08
2023-02-23T08:54:27.654Z,23.95
2023-02-23T08:56:58.113Z,22.55
2023-02-23T08:59:25.844Z,20.58
2023-02-23T09:01:52.900Z,24.60
2023-02-23T09:04:19.936Z,17.20
2023-02-23T09:06:50.378Z,20.17
2023-02-23T09:09:17.849Z,18.95
2023-02-23T09:11:47.366Z,27.08
2023-02-23T09:14:14.510Z,22.30
2023-02-23T09:16:41.502Z,31.77
2023-02-23T09:19:08.470Z,32.60
2023-02-23T09:21:35.467Z,29.35
2023-02-23T09:24:02.553Z,30.90
2023-02-23T09:26:29.699Z,30.52
2023-02-23T09:28:59.393Z,28.73
2023-02-23T09:31:26.480Z,28.25
2023-02-23T09:33:56.365Z,31.13
2023-02-23T09:36:25.698Z,30.55
2023-02-23T09:38:57.973Z,34.42
2023-02-23T09:44:29.775Z,31.75
2023-02-23T09:49:35.013Z,40.10
2023-02-23T09:52:04.782Z,34.55
2023-02-23T09:54:36.814Z,36.22
2023-02-23T09:57:11.034Z,37.45
2023-02-23T09:59:39.829Z,37.50
2023-02-23T10:02:48.218Z,39.13
2023-02-23T10:05:16.115Z,30.92
2023-02-23T10:08:09.123Z,31.25
2023-02-23T10:10:58.275Z,30.80
2023-02-23T10:13:34.369Z,29.83
2023-02-23T10:16:15.829Z,31.98
2023-02-23T10:19:08.291Z,30.42
2023-02-23T10:21:44.882Z,24.38
2023-02-23T10:24:14.670Z,29.40
2023-02-23T10:26:53.204Z,27.38
2023-02-23T10:29:26.985Z,25.95
2023-02-23T10:32:28.718Z,25.13
2023-02-23T10:34:56.818Z,23.70
2023-02-23T10:37:25.827Z,25.50
2023-02-23T10:39:53.525Z,28.10
2023-02-23T10:42:34.415Z,32.53
2023-02-23T10:45:01.594Z,29.85
2023-02-23T10:47:34.962Z,34.42
2023-02-23T10:50:03.601Z,37.65
2023-02-23T10:52:41.896Z,33.42
2023-02-23T10:55:32.097Z,29.52
2023-02-23T10:58:08.352Z,26.65
2023-02-23T11:00:40.867Z,28.45
2023-02-23T11:03:27.634Z,27.08
2023-02-23T11:05:54.986Z,23.98
2023-02-23T11:08:22.348Z,34.15
2023-02-23T11:11:04.733Z,30.00
2023-02-23T11:13:46.683Z,29.70
2023-02-23T11:16:44.526Z,25.35
2023-02-23T11:19:24.381Z,31.98
2023-02-23T11:21:52.981Z,31.52
2023-02-23T11:24:27.580Z,27.30
2023-02-23T11:26:59.435Z,29.83
2023-02-23T11:29:44.392Z,32.47
2023-02-23T11:32:14.577Z,27.85
2023-02-23T11:34:43.570Z,22.35
2023-02-23T11:37:14.508Z,31.25
2023-02-23T11:39:54.956Z,28.08
2023-02-23T11:42:35.272Z,25.80
2023-02-23T11:45:33.770Z,27.10
2023-02-23T11:48:02.802Z,30.33
2023-02-23T11:50:35.848Z,30.83
2023-02-23T11:53:13.891Z,34.20
2023-02-23T11:55:48.646Z,30.45
2023-02-23T11:58:30.756Z,30.98
2023-02-23T12:01:00.213Z,27.88
2023-02-23T12:03:29.586Z,26.50
2023-02-23T12:05:59.294Z,30.23
2023-02-23T12:08:40.536Z,29.95
2023-02-23T12:11:16.815Z,29.95
2023-02-23T12:14:23.225Z,27.33
2023-02-23T12:16:57.187Z,31.20
2023-02-23T12:19:27.173Z,28.20
2023-02-23T12:21:59.805Z,29.20
2023-02-23T12:27:23.193Z,24.13
2023-02-23T12:30:16.192Z,26.30
2023-02-23T12:32:58.011Z,23.30
2023-02-23T12:35:43.740Z,25.05
2023-02-23T12:38:30.961Z,23.67
2023-02-23T12:41:18.591Z,23.35
2023-02-23T12:44:15.445Z,21.67
2023-02-23T12:46:49.095Z,21.88
2023-02-23T12:49:48.360Z,23.35
2023-02-23T12:52:31.998Z,18.05
2023-02-23T12:55:01.609Z,21.02
2023-02-23T12:57:45.129Z,17.48
2023-02-23T13:01:00.872Z,17.65
2023-02-23T13:03:54.221Z,21.65
2023-02-23T13:06:24.666Z,17.20
2023-02-23T13:09:42.354Z,18.05
2023-02-23T13:12:23.586Z,16.15
2023-02-23T13:15:24.086Z,13.20
2023-02-23T13:18:11.429Z,12.70
2023-02-23T13:20:54.974Z,15.32
2023-02-23T13:23:54.099Z,14.55
2023-02-23T13:26:43.823Z,14.18
2023-02-23T13:29:36.556Z,18.35
2023-02-23T13:34:36.620Z,12.23
2023-02-23T13:37:07.170Z,14.60
2023-02-23T13:39:47.852Z,14.57
2023-02-23T13:42:21.005Z,9.00
2023-02-23T13:45:09.412Z,9.23
2023-02-23T13:47:50.248Z,9.60
2023-02-23T13:50:54.664Z,9.07
2023-02-23T13:53:41.965Z,7.22
2023-02-23T13:56:22.193Z,10.45
2023-02-23T13:58:53.415Z,7.78
2023-02-23T14:01:28.725Z,10.48
2023-02-23T14:03:59.212Z,8.00
2023-02-23T14:06:29.689Z,9.70
2023-02-23T14:09:21.516Z,7.53
2023-02-23T14:11:54.266Z,7.57
2023-02-23T14:14:30.504Z,8.68
2023-02-23T14:17:35.869Z,8.38
2023-02-23T14:20:17.859Z,9.48
2023-02-23T14:23:18.425Z,10.40
2023-02-23T14:26:08.901Z,10.60
2023-02-23T14:28:39.336Z,10.13
2023-02-23T14:31:12.478Z,8.77
2023-02-23T14:33:42.540Z,10.35
2023-02-23T14:36:21.966Z,8.32
2023-02-23T14:38:51.987Z,7.53
2023-02-23T14:41:23.325Z,8.52
2023-02-23T14:43:55.366Z,6.75
2023-02-23T14:46:25.294Z,8.90
2023-02-23T14:49:20.328Z,7.88
2023-02-23T14:52:00.445Z,9.00
2023-02-23T14:54:27.364Z,5.45
2023-02-23T14:56:59.202Z,5.65
2023-02-23T14:59:38.750Z,5.78
2023-02-23T15:02:27.849Z,6.05
2023-02-23T15:04:55.146Z,6.50
2023-02-23T15:07:32.547Z,7.78
2023-02-23T15:10:01.507Z,8.93
2023-02-23T15:12:38.082Z,9.77
2023-02-23T15:15:13.106Z,10.65
2023-02-23T15:17:44.374Z,10.95
2023-02-23T15:20:17.239Z,9.88
2023-02-23T15:22:51.961Z,9.90
2023-02-23T15:25:24.067Z,8.82
2023-02-23T15:27:52.047Z,9.20
2023-02-23T15:30:35.333Z,9.57
2023-02-23T15:33:06.130Z,8.10
2023-02-23T15:35:45.133Z,9.65
2023-02-23T15:38:41.694Z,10.18
2023-02-23T15:41:15.385Z,9.25
2023-02-23T15:43:43.536Z,8.80
2023-02-23T15:46:24.141Z,8.27
2023-02-23T15:48:54.028Z,7.75
2023-02-23T15:51:39.301Z,9.85
2023-02-23T15:54:28.775Z,9.02
2023-02-23T15:56:58.757Z,6.72
2023-02-23T15:59:35.417Z,9.73
2023-02-23T16:02:04.490Z,10.05
2023-02-23T16:04:42.662Z,9.70
2023-02-23T16:07:23.731Z,10.70
2023-02-23T16:10:06.755Z,7.75
2023-02-23T16:12:40.835Z,10.10
2023-02-23T16:15:29.719Z,9.02
2023-02-23T16:18:01.098Z,8.85
2023-02-23T16:20:41.700Z,9.07
2023-02-23T16:23:28.577Z,7.82
2023-02-23T16:26:12.501Z,6.00
2023-02-23T16:28:45.805Z,9.20
2023-02-23T16:31:23.337Z,7.93
2023-02-23T16:34:03.657Z,8.32
2023-02-23T16:36:38.684Z,6.93
2023-02-23T16:39:12.275Z,8.73
2023-02-23T16:41:39.532Z,8.35
2023-02-23T16:44:07.925Z,10.05
2023-02-23T16:47:02.433Z,12.00
2023-02-23T16:49:35.755Z,10.52
2023-02-23T16:52:25.786Z,13.38
2023-02-23T16:54:55.722Z,12.02
2023-02-23T16:57:30.763Z,9.30
2023-02-23T16:59:58.827Z,12.57
2023-02-23T17:02:26.287Z,13.65
2023-02-23T17:04:58.956Z,13.65
2023-02-23T17:07:29.269Z,13.77
2023-02-23T17:09:56.720Z,13.73
2023-02-23T17:12:24.925Z,13.38
2023-02-23T17:14:54.641Z,10.00
2023-02-23T17:17:26.165Z,15.07
2023-02-23T17:19:53.289Z,19.73
2023-02-23T17:22:20.777Z,18.33
2023-02-23T17:24:48.053Z,14.88
2023-02-23T17:27:15.211Z,16.88
2023-02-23T17:29:42.642Z,13.25
2023-02-23T17:32:09.989Z,17.15
2023-02-23T17:34:40.474Z,13.02
2023-02-23T17:37:08.634Z,10.85
2023-02-23T17:39:41.014Z,11.23
2023-02-23T17:42:10.711Z,6.43
2023-02-23T17:44:37.790Z,6.65
2023-02-23T17:47:07.495Z,10.90
2023-02-23T17:49:34.699Z,10.52
2023-02-23T17:52:05.313Z,6.63
2023-02-23T17:54:32.556Z,7.38
2023-02-23T17:56:59.626Z,7.47
2023-02-23T17:59:26.806Z,6.85
2023-02-23T18:01:54.031Z,8.90
2023-02-23T18:04:21.289Z,7.70
2023-02-23T18:06:51.414Z,6.15
2023-02-23T18:09:21.151Z,9.52
2023-02-23T18:11:48.582Z,8.50
2023-02-23T18:14:16.824Z,9.85
2023-02-23T18:16:43.993Z,4.28
2023-02-23T18:19:11.168Z,5.80
2023-02-23T18:21:42.254Z,7.18
2023-02-23T18:24:11.826Z,2.90
2023-02-23T18:26:40.246Z,4.35
2023-02-23T18:29:07.828Z,4.03
2023-02-23T18:31:35.222Z,5.53
2023-02-23T18:34:02.540Z,7.05
2023-02-23T18:36:31.982Z,5.30
2023-02-23T18:39:00.844Z,10.63
2023-02-23T18:41:31.290Z,7.18
2023-02-23T18:44:04.342Z,5.82
2023-02-23T18:46:42.626Z,6.45
2023-02-23T18:49:16.982Z,7.03
2023-02-23T18:51:44.650Z,6.03
2023-02-23T18:54:17.065Z,7.25
2023-02-23T18:59:16.902Z,6.22
2023-02-23T19:01:46.761Z,7.40
2023-02-23T19:04:14.239Z,6.38
2023-02-23T19:06:43.944Z,4.45
2023-02-23T19:09:14.478Z,7.93
2023-02-23T19:11:43.257Z,9.00
2023-02-23T19:14:16.179Z,12.68
2023-02-23T19:16:45.459Z,5.97
2023-02-23T19:19:13.324Z,6.05
2023-02-23T19:21:41.059Z,6.97
2023-02-23T19:24:08.393Z,7.88
2023-02-23T19:26:37.680Z,5.55
2023-02-23T19:29:05.075Z,5.30
2023-02-23T19:31:32.626Z,3.63
2023-02-23T19:34:05.153Z,7.38
2023-02-23T19:36:33.861Z,3.33
2023-02-23T19:39:10.911Z,2.85
2023-02-23T19:41:39.712Z,2.88
2023-02-23T19:44:07.174Z,2.05
2023-02-23T19:46:35.216Z,3.92
2023-02-23T19:49:02.905Z,1.80
2023-02-23T19:51:30.515Z,1.58
2023-02-23T19:53:58.929Z,4.57
2023-02-23T19:56:30.767Z,2.92
2023-02-23T19:58:59.987Z,1.15
2023-02-23T20:01:30.417Z,1.45
2023-02-23T20:04:02.396Z,4.53
2023-02-23T20:06:34.423Z,5.05
2023-02-23T20:09:05.893Z,3.60
2023-02-23T20:11:52.588Z,3.80
2023-02-23T20:15:56.240Z,4.15
2023-02-23T20:22:57.584Z,3.80
2023-02-23T20:25:35.895Z,5.25
2023-02-23T20:28:34.952Z,3.10
2023-02-23T20:31:11.085Z,2.00
2023-02-23T20:33:38.274Z,3.03
2023-02-23T20:36:15.298Z,3.13
2023-02-23T20:38:50.320Z,1.48
2023-02-23T20:41:17.889Z,2.90
2023-02-23T20:43:49.108Z,3.30
2023-02-23T20:46:40.774Z,2.97
2023-02-23T20:49:19.228Z,5.63
2023-02-23T20:55:32.570Z,2.60
2023-02-23T21:02:58.686Z,4.25
2023-02-23T21:05:28.931Z,2.97
2023-02-23T21:08:01.148Z,3.88
2023-02-23T21:10:51.731Z,1.65
2023-02-23T21:13:21.889Z,2.15
2023-02-23T21:20:20.952Z,2.33
2023-02-23T21:23:42.578Z,3.00
2023-02-23T21:29:33.064Z,3.17
2023-02-23T21:35:23.470Z,4.93
2023-02-23T21:37:51.471Z,7.18
2023-02-23T21:43:46.341Z,7.82
2023-02-23T21:46:17.324Z,6.20
2023-02-23T21:48:44.762Z,4.90
2023-02-23T21:51:18.648Z,7.25
2023-02-23T21:53:49.474Z,7.57
2023-02-23T21:56:24.457Z,4.57
2023-02-23T21:58:53.631Z,4.35
2023-02-23T22:01:29.528Z,6.55
2023-02-23T22:03:57.761Z,3.75
2023-02-23T22:06:31.294Z,5.25
2023-02-23T22:08:59.894Z,2.28
2023-02-23T22:11:31.075Z,5.20
2023-02-23T22:13:59.883Z,1.43
2023-02-23T22:16:33.432Z,3.45
2023-02-23T22:19:06.998Z,3.38
2023-02-23T22:21:40.852Z,1.23
2023-02-23T22:24:09.466Z,7.57
2023-02-23T22:26:42.048Z,4.07
2023-02-23T22:31:38.589Z,3.58
2023-02-23T22:34:07.903Z,1.58
2023-02-23T22:36:35.034Z,3.25
2023-02-23T22:39:06.922Z,3.55
2023-02-23T22:41:42.366Z,3.97
2023-02-23T22:44:12.705Z,1.92
2023-02-23T22:46:41.362Z,2.78
2023-02-23T22:49:15.873Z,2.47
2023-02-23T22:51:43.777Z,2.42
2023-02-23T22:54:11.714Z,3.67
2023-02-23T22:56:39.750Z,2.97
2023-02-23T22:59:08.661Z,3.17
2023-02-23T23:01:38.755Z,3.05
2023-02-23T23:04:10.608Z,3.83
2023-02-23T23:06:40.239Z,2.67
2023-02-23T23:09:08.514Z,4.60
2023-02-23T23:11:41.749Z,2.00
2023-02-23T23:14:10.505Z,2.38
2023-02-23T23:16:48.460Z,4.57
2023-02-23T23:19:24.071Z,4.50
2023-02-23T23:21:55.278Z,3.03
2023-02-23T23:24:24.201Z,1.70
2023-02-23T23:32:20.878Z,1.27
2023-02-23T23:34:49.265Z,2.92
2023-02-23T23:37:21.450Z,1.55
2023-02-23T23:40:00.250Z,1.65
2023-02-23T23:42:27.741Z,2.60
2023-02-23T23:44:57.001Z,2.03
2023-02-23T23:47:28.652Z,2.13
2023-02-23T23:49:56.084Z,3.35
2023-02-23T23:52:25.257Z,2.35
2023-02-23T23:54:54.577Z,2.33
2023-02-23T23:57:21.859Z,2.88
2023-02-23T23:59:49.184Z,3.38
